Time;durP1;ratioP1;P1;durP2;ratioP2;P2;SDS_P1;SDS_P2;PMS_P1;PMS_P2;Temp;Humidity;BMP_temperature;BMP_pressure;BME280_temperature;BME280_humidity;BME280_pressure;Samples;Min_cycle;Max_cycle;Signal;HPM_P1;HPM_P2
2023/12/23 00:02:10;;;;;;;15.10;3.00;;;4.90;99.90;;;;;;5053679;28;20044;-83
2023/12/23 00:04:36;;;;;;;17.60;2.92;;;4.80;99.90;;;;;;5059743;28;20123;-81
2023/12/23 00:07:02;;;;;;;16.00;3.35;;;4.80;99.90;;;;;;5071220;28;20036;-81
2023/12/23 00:09:28;;;;;;;17.75;3.17;;;4.80;99.90;;;;;;5058508;28;20109;-82
2023/12/23 00:11:54;;;;;;;18.67;4.10;;;4.80;99.90;;;;;;5054049;28;20060;-82
2023/12/23 00:14:20;;;;;;;12.70;2.92;;;4.80;99.90;;;;;;5064814;28;20356;-82
2023/12/23 00:16:46;;;;;;;16.42;3.75;;;4.70;99.90;;;;;;5061206;28;20031;-82
2023/12/23 00:19:11;;;;;;;20.92;3.25;;;4.70;99.90;;;;;;5061381;28;20518;-82
2023/12/23 00:21:37;;;;;;;16.98;4.00;;;4.60;99.90;;;;;;5061674;28;20073;-82
2023/12/23 00:24:03;;;;;;;24.88;3.92;;;4.60;99.90;;;;;;5059502;28;20043;-82
2023/12/23 00:26:28;;;;;;;16.77;3.25;;;4.60;99.90;;;;;;5076464;28;20609;-82
2023/12/23 00:28:54;;;;;;;17.60;3.28;;;4.60;99.90;;;;;;5057148;28;20235;-82
2023/12/23 00:31:20;;;;;;;18.85;4.63;;;4.50;99.90;;;;;;5055222;28;20213;-82
2023/12/23 00:33:48;;;;;;;15.23;3.30;;;4.50;99.90;;;;;;5060859;28;20044;-82
2023/12/23 00:36:14;;;;;;;20.42;3.38;;;4.50;99.90;;;;;;5075955;28;20121;-82
2023/12/23 00:38:39;;;;;;;20.77;3.90;;;4.50;99.90;;;;;;5078291;28;20051;-83
2023/12/23 00:41:05;;;;;;;15.70;3.30;;;4.50;99.90;;;;;;5059041;28;20110;-82
2023/12/23 00:43:31;;;;;;;16.90;3.25;;;4.50;99.90;;;;;;5057094;28;20055;-82
2023/12/23 00:45:56;;;;;;;20.33;3.50;;;4.60;99.90;;;;;;5069079;28;20032;-83
2023/12/23 00:48:22;;;;;;;16.73;2.80;;;4.60;99.90;;;;;;5073979;28;20840;-82
2023/12/23 00:50:48;;;;;;;17.70;3.40;;;4.60;99.90;;;;;;5055191;28;20032;-82
2023/12/23 00:53:13;;;;;;;17.27;3.28;;;4.70;99.90;;;;;;5067529;28;20048;-82
2023/12/23 00:55:39;;;;;;;15.60;2.80;;;4.70;99.90;;;;;;5073117;28;20424;-83
2023/12/23 00:58:05;;;;;;;19.98;3.25;;;4.80;99.90;;;;;;5054313;28;20402;-82
2023/12/23 01:00:30;;;;;;;14.70;3.28;;;4.90;99.90;;;;;;5056457;28;20063;-82
2023/12/23 01:02:57;;;;;;;18.67;3.65;;;4.90;99.90;;;;;;5053485;28;20126;-82
2023/12/23 01:05:22;;;;;;;13.20;3.03;;;4.90;99.90;;;;;;5059212;28;20491;-82
2023/12/23 01:07:48;;;;;;;12.32;2.42;;;4.90;99.90;;;;;;5073806;28;20046;-82
2023/12/23 01:10:14;;;;;;;15.00;3.47;;;5.00;99.90;;;;;;5073257;28;20131;-82
2023/12/23 01:12:39;;;;;;;17.65;2.60;;;5.00;99.90;;;;;;5073425;28;20102;-83
2023/12/23 01:15:06;;;;;;;16.15;2.63;;;5.10;99.90;;;;;;5049962;28;20028;-82
2023/12/23 01:17:31;;;;;;;15.25;2.45;;;5.10;99.90;;;;;;5057009;28;20055;-83
2023/12/23 01:19:57;;;;;;;12.15;2.67;;;5.20;99.90;;;;;;5056911;28;20044;-82
2023/12/23 01:22:26;;;;;;;17.88;2.67;;;5.30;99.90;;;;;;5056896;28;20071;-82
2023/12/23 01:24:51;;;;;;;10.25;2.17;;;5.30;99.90;;;;;;5057435;28;20082;-82
2023/12/23 01:27:17;;;;;;;20.88;3.85;;;5.30;99.90;;;;;;5073913;28;20180;-82
2023/12/23 01:29:43;;;;;;;15.40;3.10;;;5.30;99.90;;;;;;5071227;28;20062;-82
2023/12/23 01:32:08;;;;;;;9.85;2.63;;;5.30;99.90;;;;;;5056534;28;20563;-82
2023/12/23 01:34:34;;;;;;;13.70;2.85;;;5.40;99.90;;;;;;5051379;28;20050;-83
2023/12/23 01:37:00;;;;;;;17.85;2.22;;;5.30;99.90;;;;;;5059419;28;20105;-82
2023/12/23 01:39:28;;;;;;;19.67;3.13;;;5.40;99.90;;;;;;5058704;28;20124;-82
2023/12/23 01:41:54;;;;;;;14.57;2.38;;;5.40;99.90;;;;;;5058308;28;20569;-82
2023/12/23 01:44:19;;;;;;;13.05;2.72;;;5.40;99.90;;;;;;5065442;28;20039;-82
2023/12/23 01:46:47;;;;;;;10.88;2.50;;;5.50;99.90;;;;;;5057056;28;20388;-82
2023/12/23 01:49:13;;;;;;;12.05;1.90;;;5.50;99.90;;;;;;5079691;28;20553;-89
2023/12/23 01:51:39;;;;;;;15.25;2.47;;;5.50;99.90;;;;;;5074305;28;20423;-88
2023/12/23 01:54:05;;;;;;;10.02;1.90;;;5.50;99.90;;;;;;5059441;28;20392;-89
2023/12/23 01:56:32;;;;;;;12.90;2.33;;;5.50;99.90;;;;;;5078828;28;20114;-89
2023/12/23 01:59:00;;;;;;;15.70;2.80;;;5.50;99.90;;;;;;5074347;28;20798;-88
2023/12/23 02:01:26;;;;;;;11.00;2.72;;;5.50;99.90;;;;;;5060806;28;20499;-88
2023/12/23 02:03:52;;;;;;;11.20;2.13;;;5.60;99.90;;;;;;5057783;28;20116;-88
2023/12/23 02:06:18;;;;;;;13.63;2.83;;;5.60;99.90;;;;;;5059776;28;20031;-89
2023/12/23 02:08:43;;;;;;;10.70;2.30;;;5.60;99.90;;;;;;5072470;28;20039;-89
2023/12/23 02:11:19;;;;;;;10.02;2.05;;;5.60;99.90;;;;;;5076806;28;20030;-89
2023/12/23 02:14:06;;;;;;;13.40;2.55;;;5.60;99.90;;;;;;5057846;28;20054;-89
2023/12/23 02:16:33;;;;;;;10.00;2.10;;;5.60;99.90;;;;;;5061166;28;20044;-89
2023/12/23 02:18:58;;;;;;;11.40;2.10;;;5.60;99.90;;;;;;5060726;28;20058;-88
2023/12/23 02:21:24;;;;;;;7.63;2.30;;;5.70;99.90;;;;;;5058619;28;20299;-88
2023/12/23 02:23:50;;;;;;;16.58;2.20;;;5.70;99.90;;;;;;5064978;28;20477;-89
2023/12/23 02:26:19;;;;;;;11.60;2.60;;;5.70;99.90;;;;;;5062236;28;20443;-88
2023/12/23 02:28:51;;;;;;;11.77;2.35;;;5.70;99.90;;;;;;5071357;28;20044;-89
2023/12/23 02:31:18;;;;;;;9.48;2.05;;;5.60;99.90;;;;;;5057326;28;20032;-82
2023/12/23 02:33:46;;;;;;;14.45;2.35;;;5.60;99.90;;;;;;5056469;28;20036;-82
2023/12/23 02:36:12;;;;;;;12.82;2.60;;;5.50;99.90;;;;;;5057997;28;20048;-82
2023/12/23 02:38:40;;;;;;;14.20;2.38;;;5.50;99.90;;;;;;5058077;28;20031;-82
2023/12/23 02:41:06;;;;;;;10.43;2.38;;;5.50;99.90;;;;;;5058577;28;20551;-82
2023/12/23 02:43:32;;;;;;;13.30;1.90;;;5.50;99.90;;;;;;5054167;28;20048;-82
2023/12/23 02:46:01;;;;;;;9.27;2.28;;;5.50;99.90;;;;;;5056153;28;20040;-82
2023/12/23 02:48:26;;;;;;;8.23;1.65;;;5.50;99.90;;;;;;5072753;28;20055;-82
2023/12/23 02:50:52;;;;;;;9.40;2.05;;;5.50;99.90;;;;;;5074195;28;20032;-84
2023/12/23 02:53:18;;;;;;;12.77;2.28;;;5.40;99.90;;;;;;5059706;28;20051;-89
2023/12/23 02:55:43;;;;;;;8.93;2.17;;;5.40;99.90;;;;;;5060029;28;20434;-88
2023/12/23 02:58:10;;;;;;;8.82;2.33;;;5.40;99.90;;;;;;5060296;28;20040;-88
2023/12/23 03:00:35;;;;;;;9.43;1.80;;;5.30;99.90;;;;;;5057795;28;20035;-89
2023/12/23 03:03:01;;;;;;;6.07;1.45;;;5.30;99.90;;;;;;5069402;28;20108;-82
2023/12/23 03:05:27;;;;;;;8.45;1.60;;;5.30;99.90;;;;;;5058427;28;20043;-82
2023/12/23 03:07:53;;;;;;;11.95;2.20;;;5.20;99.90;;;;;;5056646;28;20083;-83
2023/12/23 03:10:18;;;;;;;10.63;1.98;;;5.20;99.90;;;;;;5054308;28;20044;-90
2023/12/23 03:12:44;;;;;;;5.38;1.75;;;5.10;99.90;;;;;;5056760;28;20097;-89
2023/12/23 03:15:10;;;;;;;10.80;1.92;;;5.20;99.90;;;;;;5054846;28;20039;-89
2023/12/23 03:17:35;;;;;;;8.05;1.63;;;5.10;99.90;;;;;;5061898;28;20028;-88
2023/12/23 03:20:01;;;;;;;10.38;1.73;;;5.10;99.90;;;;;;5056810;28;20053;-90
2023/12/23 03:22:27;;;;;;;9.77;1.30;;;5.10;99.90;;;;;;5057320;28;20463;-82
2023/12/23 03:24:55;;;;;;;11.32;2.17;;;5.10;99.90;;;;;;5055731;28;20033;-83
2023/12/23 03:27:20;;;;;;;8.18;1.67;;;5.10;99.90;;;;;;5069381;28;20696;-82
2023/12/23 03:29:46;;;;;;;10.18;2.15;;;5.10;99.90;;;;;;5056637;28;20035;-83
2023/12/23 03:32:12;;;;;;;9.73;1.92;;;5.10;99.90;;;;;;5056195;28;20452;-82
2023/12/23 03:34:39;;;;;;;12.65;2.00;;;5.10;99.90;;;;;;5054814;28;20230;-82
2023/12/23 03:37:05;;;;;;;8.25;1.60;;;5.10;99.90;;;;;;5065139;28;20044;-82
2023/12/23 03:39:30;;;;;;;6.65;1.70;;;5.00;99.90;;;;;;5070791;28;20190;-82
2023/12/23 03:41:56;;;;;;;7.95;1.88;;;5.00;99.90;;;;;;5056968;28;20140;-82
2023/12/23 03:44:22;;;;;;;10.88;1.92;;;5.00;99.90;;;;;;5053871;28;20036;-82
2023/12/23 03:46:47;;;;;;;6.82;1.88;;;5.00;99.90;;;;;;5056717;28;20043;-83
2023/12/23 03:49:13;;;;;;;9.15;1.73;;;5.00;99.90;;;;;;5061029;28;20043;-82
2023/12/23 03:51:39;;;;;;;11.50;1.85;;;5.00;99.90;;;;;;5063238;28;20039;-82
2023/12/23 03:54:04;;;;;;;10.63;1.77;;;5.00;99.90;;;;;;5075427;28;20181;-82
2023/12/23 03:56:31;;;;;;;10.80;2.03;;;5.00;99.90;;;;;;5060016;28;20048;-83
2023/12/23 03:58:58;;;;;;;9.93;2.05;;;5.00;99.90;;;;;;5057935;28;20079;-82
2023/12/23 04:01:24;;;;;;;6.78;1.48;;;5.00;99.90;;;;;;5061254;28;20040;-82
2023/12/23 04:03:50;;;;;;;10.00;1.83;;;5.00;99.90;;;;;;5076001;28;20036;-82
2023/12/23 04:06:16;;;;;;;9.48;2.28;;;5.00;99.90;;;;;;5064292;28;20128;-82
2023/12/23 04:08:42;;;;;;;10.80;2.20;;;5.00;99.90;;;;;;5055235;28;20475;-82
2023/12/23 04:11:08;;;;;;;9.70;2.10;;;5.00;99.90;;;;;;5075420;28;20051;-82
2023/12/23 04:13:36;;;;;;;8.52;2.30;;;5.00;99.90;;;;;;5069982;28;20040;-83
2023/12/23 04:16:05;;;;;;;10.15;2.00;;;5.00;99.90;;;;;;5055116;28;20459;-82
2023/12/23 04:18:31;;;;;;;9.63;1.83;;;5.00;99.90;;;;;;5056312;28;20208;-83
2023/12/23 04:20:57;;;;;;;9.65;1.80;;;5.00;99.90;;;;;;5062243;28;20053;-82
2023/12/23 04:23:23;;;;;;;10.43;1.95;;;5.00;99.90;;;;;;5061555;28;20032;-82
2023/12/23 04:25:49;;;;;;;9.15;1.83;;;5.00;99.90;;;;;;5060709;28;20048;-82
2023/12/23 04:28:17;;;;;;;8.43;1.92;;;5.00;99.90;;;;;;5078578;28;20044;-82
2023/12/23 04:30:42;;;;;;;10.02;1.73;;;5.10;99.90;;;;;;5073697;28;20163;-82
2023/12/23 04:33:09;;;;;;;7.13;1.65;;;5.00;99.90;;;;;;5075281;28;20039;-82
2023/12/23 04:35:36;;;;;;;11.00;2.22;;;5.00;99.90;;;;;;5061600;28;20461;-82
2023/12/23 04:38:01;;;;;;;9.35;1.77;;;5.00;99.90;;;;;;5061475;28;20044;-83
2023/12/23 04:40:27;;;;;;;7.32;1.52;;;5.00;99.90;;;;;;5060311;28;20044;-82
2023/12/23 04:42:53;;;;;;;9.38;2.42;;;5.00;99.90;;;;;;5065258;28;20035;-82
2023/12/23 04:45:18;;;;;;;6.18;1.42;;;5.10;99.90;;;;;;5060958;28;20513;-82
2023/12/23 04:47:44;;;;;;;5.90;1.45;;;5.00;99.90;;;;;;5064006;28;20047;-82
2023/12/23 04:50:10;;;;;;;3.53;1.27;;;5.00;99.90;;;;;;5077149;28;20109;-82
2023/12/23 04:52:35;;;;;;;5.07;1.08;;;5.00;99.90;;;;;;5075899;28;20039;-82
2023/12/23 04:55:05;;;;;;;5.07;1.27;;;5.00;99.90;;;;;;5060512;28;20047;-83
2023/12/23 04:57:31;;;;;;;8.68;1.45;;;5.00;99.90;;;;;;5079166;28;20047;-82
2023/12/23 04:59:57;;;;;;;2.50;1.10;;;5.00;99.90;;;;;;5062058;28;20055;-83
2023/12/23 05:02:23;;;;;;;7.20;1.40;;;5.00;99.90;;;;;;5075752;28;20039;-83
2023/12/23 05:04:49;;;;;;;3.58;1.10;;;5.00;99.90;;;;;;5062513;28;20028;-83
2023/12/23 05:07:15;;;;;;;7.97;1.40;;;5.00;99.90;;;;;;5060614;28;20544;-82
2023/12/23 05:09:40;;;;;;;3.38;1.08;;;5.00;99.90;;;;;;5077946;28;20043;-82
2023/12/23 05:12:06;;;;;;;6.18;1.10;;;5.00;99.90;;;;;;5060058;28;20527;-82
2023/12/23 05:14:32;;;;;;;5.93;1.40;;;5.00;99.90;;;;;;5062838;28;20040;-82
2023/12/23 05:16:58;;;;;;;4.25;1.33;;;5.10;99.90;;;;;;5055538;28;20043;-82
2023/12/23 05:19:23;;;;;;;2.58;0.90;;;5.00;99.90;;;;;;5063322;28;20063;-83
2023/12/23 05:21:49;;;;;;;8.18;1.45;;;5.00;99.90;;;;;;5057399;28;20081;-83
2023/12/23 05:24:15;;;;;;;6.53;1.27;;;5.00;99.90;;;;;;5064344;28;20035;-82
2023/12/23 05:26:40;;;;;;;6.22;1.73;;;5.00;99.90;;;;;;5073855;28;20048;-83
2023/12/23 05:29:09;;;;;;;7.53;1.10;;;5.00;99.90;;;;;;5076344;28;20308;-82
2023/12/23 05:31:34;;;;;;;6.32;1.42;;;5.00;99.90;;;;;;5058830;28;20062;-83
2023/12/23 05:34:00;;;;;;;3.53;1.10;;;5.00;99.90;;;;;;5057846;28;20526;-82
2023/12/23 05:36:26;;;;;;;2.70;0.93;;;5.00;99.90;;;;;;5061738;28;20400;-82
2023/12/23 05:38:51;;;;;;;4.15;1.15;;;5.00;99.90;;;;;;5062405;28;20118;-82
2023/12/23 05:41:17;;;;;;;4.38;1.00;;;5.00;99.90;;;;;;5061087;28;20052;-83
2023/12/23 05:43:43;;;;;;;5.50;1.20;;;5.00;99.90;;;;;;5071918;28;20202;-82
2023/12/23 05:46:09;;;;;;;2.10;0.90;;;4.90;99.90;;;;;;5056951;28;20043;-82
2023/12/23 05:48:35;;;;;;;4.35;1.50;;;5.00;99.90;;;;;;5089736;28;20608;-83
2023/12/23 05:51:00;;;;;;;8.82;1.10;;;5.00;99.90;;;;;;5077621;28;20031;-82
2023/12/23 05:53:26;;;;;;;2.78;1.17;;;5.00;99.90;;;;;;5077093;28;20043;-83
2023/12/23 05:55:52;;;;;;;4.80;1.35;;;5.00;99.90;;;;;;5071836;28;20051;-82
2023/12/23 05:58:18;;;;;;;3.28;1.27;;;5.00;99.90;;;;;;5062845;28;20481;-82
2023/12/23 06:00:43;;;;;;;4.40;1.45;;;5.00;99.90;;;;;;5059453;28;20052;-82
2023/12/23 06:03:09;;;;;;;5.47;1.70;;;5.00;99.90;;;;;;5078628;28;20400;-83
2023/12/23 06:05:34;;;;;;;5.65;1.70;;;5.00;99.90;;;;;;5058929;28;20039;-82
2023/12/23 06:08:02;;;;;;;2.97;1.25;;;4.90;99.90;;;;;;5059611;28;20039;-82
2023/12/23 06:10:27;;;;;;;4.65;1.38;;;5.00;99.90;;;;;;5059527;28;20043;-83
2023/12/23 06:12:53;;;;;;;7.28;1.80;;;5.00;99.90;;;;;;5056548;28;20367;-82
2023/12/23 06:15:19;;;;;;;3.92;1.77;;;4.90;99.90;;;;;;5070956;28;20064;-82
2023/12/23 06:17:47;;;;;;;4.97;1.42;;;4.90;99.90;;;;;;5062964;28;20126;-82
2023/12/23 06:20:12;;;;;;;4.50;1.55;;;4.90;99.90;;;;;;5056778;28;20125;-83
2023/12/23 06:22:38;;;;;;;3.72;1.50;;;4.90;99.90;;;;;;5069791;28;20056;-82
2023/12/23 06:25:04;;;;;;;6.38;1.80;;;4.90;99.90;;;;;;5066246;28;20421;-82
2023/12/23 06:27:30;;;;;;;2.53;1.23;;;4.90;99.90;;;;;;5068725;28;20045;-82
2023/12/23 06:29:56;;;;;;;4.53;1.35;;;4.90;99.90;;;;;;5071991;28;20546;-82
2023/12/23 06:32:21;;;;;;;6.03;1.25;;;4.90;99.90;;;;;;5059850;28;20032;-82
2023/12/23 06:34:47;;;;;;;4.82;1.40;;;4.90;99.90;;;;;;5070535;28;20119;-82
2023/12/23 06:37:13;;;;;;;4.03;1.27;;;4.90;99.90;;;;;;5054627;28;20120;-82
2023/12/23 06:39:38;;;;;;;1.73;0.93;;;4.90;99.90;;;;;;5056202;28;20518;-82
2023/12/23 06:42:05;;;;;;;2.97;1.05;;;4.80;99.90;;;;;;5051805;28;20052;-82
2023/12/23 06:44:31;;;;;;;4.45;1.20;;;4.80;99.90;;;;;;5055998;28;20067;-82
2023/12/23 06:46:57;;;;;;;4.20;1.25;;;4.80;99.90;;;;;;5070835;28;20097;-82
2023/12/23 06:49:24;;;;;;;6.10;1.75;;;4.80;99.90;;;;;;5057014;28;20044;-82
2023/12/23 06:51:49;;;;;;;4.32;1.13;;;4.80;99.90;;;;;;5059266;28;20605;-82
2023/12/23 06:54:16;;;;;;;2.13;0.90;;;4.80;99.90;;;;;;5051669;28;20103;-83
2023/12/23 06:56:41;;;;;;;2.88;0.90;;;4.80;99.90;;;;;;5068596;28;20185;-82
2023/12/23 06:59:09;;;;;;;3.47;0.77;;;4.80;99.90;;;;;;5056003;28;20036;-83
2023/12/23 07:01:37;;;;;;;2.40;0.70;;;4.70;99.90;;;;;;5058471;28;20047;-82
2023/12/23 07:04:03;;;;;;;4.03;0.80;;;4.70;99.90;;;;;;5051400;28;20044;-82
2023/12/23 07:06:29;;;;;;;2.85;1.10;;;4.60;99.90;;;;;;5057355;28;20047;-82
2023/12/23 07:08:54;;;;;;;4.22;0.90;;;4.50;99.90;;;;;;5057045;28;20267;-82
2023/12/23 07:11:20;;;;;;;2.53;0.70;;;4.60;99.90;;;;;;5054051;28;20066;-82
2023/12/23 07:13:46;;;;;;;3.63;0.80;;;4.50;99.90;;;;;;5071954;28;20110;-82
2023/12/23 07:16:11;;;;;;;1.45;0.55;;;4.50;99.90;;;;;;5055330;28;20032;-83
2023/12/23 07:18:37;;;;;;;2.83;0.95;;;4.50;99.90;;;;;;5053576;28;20082;-82
2023/12/23 07:21:03;;;;;;;3.42;0.75;;;4.60;99.90;;;;;;5072073;28;20052;-83
2023/12/23 07:23:28;;;;;;;4.30;0.90;;;4.60;99.90;;;;;;5058741;28;20134;-82
2023/12/23 07:25:54;;;;;;;0.90;0.63;;;4.50;99.90;;;;;;5079115;28;20055;-82
2023/12/23 07:28:20;;;;;;;2.42;0.88;;;4.40;99.90;;;;;;5064463;28;20095;-82
2023/12/23 07:30:45;;;;;;;2.30;0.70;;;4.50;99.90;;;;;;5061146;28;20645;-82
2023/12/23 07:33:14;;;;;;;1.35;0.70;;;4.50;99.90;;;;;;5062746;28;20035;-82
2023/12/23 07:35:40;;;;;;;3.58;0.82;;;4.50;99.90;;;;;;5058728;28;20093;-82
2023/12/23 07:38:07;;;;;;;2.30;0.85;;;4.50;99.90;;;;;;5054556;28;20039;-83
2023/12/23 07:40:35;;;;;;;1.52;0.90;;;4.50;99.90;;;;;;5063099;28;20054;-82
2023/12/23 07:43:01;;;;;;;3.13;1.00;;;4.60;99.90;;;;;;5062061;28;20046;-83
2023/12/23 07:45:26;;;;;;;4.13;1.00;;;4.60;99.90;;;;;;5059711;28;20048;-82
2023/12/23 07:47:52;;;;;;;3.22;0.90;;;4.60;99.90;;;;;;5061798;28;20093;-82
2023/12/23 07:50:18;;;;;;;3.05;1.00;;;4.60;99.90;;;;;;5062809;28;20067;-83
2023/12/23 07:52:43;;;;;;;1.35;0.77;;;4.60;99.90;;;;;;5065506;28;20048;-83
2023/12/23 07:55:09;;;;;;;2.28;0.90;;;4.60;99.90;;;;;;5063004;28;20483;-82
2023/12/23 07:57:35;;;;;;;1.45;0.80;;;4.60;99.90;;;;;;5060054;28;20066;-82
2023/12/23 08:00:00;;;;;;;3.40;0.77;;;4.60;99.90;;;;;;5062493;28;20086;-82
2023/12/23 08:02:26;;;;;;;2.30;0.90;;;4.60;99.90;;;;;;5060283;28;20569;-83
2023/12/23 08:04:52;;;;;;;1.73;0.85;;;4.70;99.90;;;;;;5077784;28;20617;-82
2023/12/23 08:07:17;;;;;;;1.75;0.63;;;4.60;99.90;;;;;;5060264;28;20479;-82
2023/12/23 08:09:43;;;;;;;1.90;0.82;;;4.50;99.90;;;;;;5065885;28;20047;-82
2023/12/23 08:12:09;;;;;;;2.10;0.93;;;4.60;99.90;;;;;;5076217;28;20379;-82
2023/12/23 08:14:34;;;;;;;3.45;0.90;;;4.60;99.90;;;;;;5078695;28;20412;-82
2023/12/23 08:17:00;;;;;;;3.63;1.00;;;4.60;99.90;;;;;;5061287;28;20188;-83
2023/12/23 08:19:26;;;;;;;2.03;1.00;;;4.60;99.90;;;;;;5050588;28;20526;-82
2023/12/23 08:21:52;;;;;;;2.22;0.90;;;4.60;99.90;;;;;;5078191;28;20043;-83
2023/12/23 08:24:17;;;;;;;2.10;1.30;;;4.60;99.90;;;;;;5060043;28;20525;-83
2023/12/23 08:26:44;;;;;;;1.92;1.30;;;4.70;99.90;;;;;;5059985;28;20124;-82
2023/12/23 08:29:10;;;;;;;2.58;1.17;;;4.70;99.90;;;;;;5062333;28;20069;-82
2023/12/23 08:31:45;;;;;;;2.05;0.98;;;4.70;99.90;;;;;;5059021;28;20062;-82
2023/12/23 08:34:12;;;;;;;2.55;0.82;;;4.70;99.90;;;;;;5064747;28;20043;-82
2023/12/23 08:36:38;;;;;;;2.35;1.10;;;4.70;99.90;;;;;;5062446;28;20048;-82
2023/12/23 08:39:03;;;;;;;1.77;1.00;;;4.70;99.90;;;;;;5057258;28;20047;-82
2023/12/23 08:41:29;;;;;;;1.67;0.93;;;4.70;99.90;;;;;;5058776;28;20123;-82
2023/12/23 08:43:55;;;;;;;1.92;1.10;;;4.80;99.90;;;;;;5072379;28;20052;-82
2023/12/23 08:46:20;;;;;;;3.22;1.00;;;4.80;99.90;;;;;;5057757;28;20031;-82
2023/12/23 08:48:46;;;;;;;3.13;1.08;;;4.80;99.90;;;;;;5062142;28;20644;-83
2023/12/23 08:51:12;;;;;;;2.00;1.00;;;4.80;99.90;;;;;;5062464;28;20047;-82
2023/12/23 08:53:37;;;;;;;1.55;0.98;;;4.70;99.90;;;;;;5063412;28;20778;-82
2023/12/23 08:56:05;;;;;;;2.55;1.17;;;4.80;99.90;;;;;;5057184;28;20055;-82
2023/12/23 08:58:31;;;;;;;2.97;0.88;;;4.80;99.90;;;;;;5057874;28;20044;-82
2023/12/23 09:01:00;;;;;;;1.27;1.00;;;4.80;99.90;;;;;;5058560;28;20631;-82
2023/12/23 09:03:26;;;;;;;2.92;1.30;;;4.80;99.90;;;;;;5062168;28;20074;-82
2023/12/23 09:05:52;;;;;;;2.00;1.30;;;4.70;99.90;;;;;;5061681;28;20120;-82
2023/12/23 09:08:18;;;;;;;2.05;1.33;;;4.80;99.90;;;;;;5059083;28;20429;-82
2023/12/23 09:10:44;;;;;;;3.05;1.55;;;4.80;99.90;;;;;;5055984;28;20118;-84
2023/12/23 09:13:09;;;;;;;4.30;1.52;;;4.80;99.90;;;;;;5055585;28;20423;-82
2023/12/23 09:15:38;;;;;;;2.50;1.70;;;4.90;99.90;;;;;;5055133;28;20154;-83
2023/12/23 09:18:04;;;;;;;4.65;2.20;;;4.80;99.90;;;;;;5054801;28;20039;-82
2023/12/23 09:20:31;;;;;;;2.83;1.98;;;4.90;99.90;;;;;;5052468;28;20135;-83
2023/12/23 09:22:56;;;;;;;2.00;1.42;;;5.00;99.90;;;;;;5055243;28;20047;-82
2023/12/23 09:25:22;;;;;;;3.10;1.60;;;4.90;99.90;;;;;;5072820;28;20039;-83
2023/12/23 09:27:48;;;;;;;2.85;1.70;;;5.00;99.90;;;;;;5068748;28;20039;-82
2023/12/23 09:30:15;;;;;;;2.17;1.60;;;5.00;99.90;;;;;;5049988;28;20121;-83
2023/12/23 09:32:40;;;;;;;2.25;1.25;;;5.00;99.90;;;;;;5047500;28;20110;-82
2023/12/23 09:35:06;;;;;;;2.00;1.50;;;5.10;99.90;;;;;;5060252;28;20036;-82
2023/12/23 09:37:32;;;;;;;2.70;1.40;;;5.10;99.90;;;;;;5055563;28;20046;-83
2023/12/23 09:40:01;;;;;;;1.77;1.20;;;5.10;99.90;;;;;;5057538;28;20271;-82
2023/12/23 09:42:31;;;;;;;2.00;1.23;;;5.20;99.90;;;;;;5075965;28;20467;-83
2023/12/23 09:44:57;;;;;;;1.30;1.10;;;5.10;99.90;;;;;;5057160;28;20043;-82
2023/12/23 09:47:24;;;;;;;1.77;1.15;;;5.20;99.90;;;;;;5071419;28;20376;-83
2023/12/23 09:49:51;;;;;;;1.52;1.00;;;5.20;99.90;;;;;;5065595;28;20040;-82
2023/12/23 09:52:16;;;;;;;1.00;0.90;;;5.20;99.90;;;;;;5054004;28;20039;-83
2023/12/23 09:54:47;;;;;;;3.25;1.00;;;5.20;99.90;;;;;;5055314;28;20043;-82
2023/12/23 09:57:14;;;;;;;2.03;1.10;;;5.20;99.90;;;;;;5069564;28;20403;-82
2023/12/23 09:59:40;;;;;;;1.80;1.10;;;5.30;99.90;;;;;;5055763;28;20040;-82
2023/12/23 10:02:06;;;;;;;3.20;1.80;;;5.20;99.90;;;;;;5052146;28;20052;-83
2023/12/23 10:04:33;;;;;;;2.90;1.90;;;5.30;99.90;;;;;;5057142;28;20044;-82
2023/12/23 10:06:59;;;;;;;1.92;1.33;;;5.30;99.90;;;;;;5056144;28;20142;-82
2023/12/23 10:09:30;;;;;;;2.38;1.50;;;5.30;99.90;;;;;;5059145;28;20098;-82
2023/12/23 10:11:55;;;;;;;1.88;1.30;;;5.20;99.90;;;;;;5072571;28;20122;-82
2023/12/23 10:14:22;;;;;;;2.00;1.30;;;5.20;99.90;;;;;;5053546;28;20127;-82
2023/12/23 10:16:48;;;;;;;2.40;1.40;;;5.20;99.90;;;;;;5057356;28;20415;-82
2023/12/23 10:19:14;;;;;;;1.00;0.90;;;5.20;99.90;;;;;;5050720;28;20060;-82
2023/12/23 10:21:41;;;;;;;1.17;1.08;;;5.20;99.90;;;;;;5051794;28;20348;-82
2023/12/23 10:24:07;;;;;;;1.63;1.20;;;5.20;99.90;;;;;;5054183;28;20071;-83
2023/12/23 10:26:34;;;;;;;2.50;1.33;;;5.20;99.90;;;;;;5053903;28;20076;-82
2023/12/23 10:29:04;;;;;;;1.88;1.20;;;5.30;99.90;;;;;;5056154;28;20290;-83
2023/12/23 10:31:32;;;;;;;1.30;0.65;;;5.30;99.90;;;;;;5072502;28;20311;-82
2023/12/23 10:34:06;;;;;;;0.82;0.80;;;5.30;99.90;;;;;;5058433;28;20447;-82
2023/12/23 10:36:32;;;;;;;1.15;0.73;;;5.30;99.90;;;;;;5054961;28;20601;-82
2023/12/23 10:39:02;;;;;;;1.63;1.30;;;5.30;99.90;;;;;;5071732;28;20496;-83
2023/12/23 10:41:55;;;;;;;1.50;0.73;;;5.30;99.90;;;;;;5057860;28;20392;-82
2023/12/23 10:44:22;;;;;;;1.70;1.20;;;5.30;99.90;;;;;;5053151;28;20048;-82
2023/12/23 10:46:50;;;;;;;0.60;0.60;;;5.40;99.90;;;;;;5058089;28;20252;-82
2023/12/23 10:49:18;;;;;;;1.00;0.40;;;5.40;99.90;;;;;;5053042;28;20040;-82
2023/12/23 10:51:45;;;;;;;0.40;0.40;;;5.40;99.90;;;;;;5054728;28;20066;-82
2023/12/23 10:54:12;;;;;;;0.45;0.45;;;5.50;99.90;;;;;;5051478;28;20040;-82
2023/12/23 10:56:39;;;;;;;0.80;0.40;;;5.50;99.90;;;;;;5055965;28;20044;-82
2023/12/23 10:59:07;;;;;;;0.40;0.40;;;5.50;99.90;;;;;;5049468;28;20048;-82
2023/12/23 11:01:35;;;;;;;0.50;0.40;;;5.50;99.90;;;;;;5070884;28;20040;-82
2023/12/23 11:04:02;;;;;;;0.93;0.52;;;5.50;99.90;;;;;;5053462;28;20063;-82
2023/12/23 11:06:39;;;;;;;0.50;0.38;;;5.50;99.90;;;;;;5057016;28;20510;-82
2023/12/23 11:09:06;;;;;;;0.30;0.30;;;5.50;99.90;;;;;;5050346;28;20052;-83
2023/12/23 11:11:33;;;;;;;0.30;0.30;;;5.60;99.90;;;;;;5057010;28;20119;-82
2023/12/23 11:13:59;;;;;;;0.50;0.50;;;5.60;99.90;;;;;;5070338;28;20072;-82
2023/12/23 11:16:25;;;;;;;0.65;0.40;;;5.60;99.90;;;;;;5053819;28;20543;-83
2023/12/23 11:18:52;;;;;;;0.68;0.52;;;5.60;99.90;;;;;;5050115;28;20087;-82
2023/12/23 11:21:18;;;;;;;0.40;0.40;;;5.60;99.90;;;;;;5082441;28;20055;-83
2023/12/23 11:23:44;;;;;;;0.43;0.40;;;5.60;99.90;;;;;;5062912;28;20082;-82
2023/12/23 11:26:33;;;;;;;0.57;0.50;;;5.70;99.90;;;;;;5073501;28;20038;-82
2023/12/23 11:29:04;;;;;;;0.50;0.43;;;5.60;99.90;;;;;;5042976;28;20431;-82
2023/12/23 11:31:30;;;;;;;0.82;0.65;;;5.50;99.90;;;;;;5072089;28;20100;-82
2023/12/23 11:33:58;;;;;;;0.95;0.70;;;5.50;99.90;;;;;;5057687;28;20047;-82
2023/12/23 11:36:24;;;;;;;1.25;0.70;;;5.60;99.90;;;;;;5053389;28;20055;-82
2023/12/23 11:38:51;;;;;;;0.98;0.80;;;5.50;99.90;;;;;;5058022;28;20657;-82
2023/12/23 11:41:18;;;;;;;0.63;0.63;;;5.70;99.90;;;;;;5059352;28;20075;-82
2023/12/23 11:43:45;;;;;;;0.93;0.70;;;5.70;99.90;;;;;;5058851;28;20208;-83
2023/12/23 11:46:11;;;;;;;0.70;0.70;;;5.60;99.90;;;;;;5075986;28;20498;-82
2023/12/23 11:48:37;;;;;;;1.50;0.88;;;5.60;99.90;;;;;;5053044;28;20082;-83
2023/12/23 11:51:05;;;;;;;0.98;0.88;;;5.60;99.90;;;;;;5057448;28;20327;-83
2023/12/23 11:53:30;;;;;;;0.80;0.70;;;5.60;99.90;;;;;;5057912;28;20043;-82
2023/12/23 11:55:56;;;;;;;1.17;1.00;;;5.50;99.90;;;;;;5076513;28;20058;-82
2023/12/23 11:58:23;;;;;;;1.65;0.90;;;5.60;99.90;;;;;;5062026;28;20048;-82
2023/12/23 12:00:53;;;;;;;1.30;0.75;;;5.60;99.90;;;;;;5057974;28;20044;-83
2023/12/23 12:03:19;;;;;;;1.30;0.93;;;5.60;99.90;;;;;;5054574;28;20059;-82
2023/12/23 12:05:44;;;;;;;1.15;0.90;;;5.70;99.90;;;;;;5054576;28;20043;-83
2023/12/23 12:08:10;;;;;;;1.08;0.77;;;5.70;99.90;;;;;;5057822;28;20637;-82
2023/12/23 12:10:36;;;;;;;1.13;0.98;;;5.70;99.90;;;;;;5077041;28;20103;-82
2023/12/23 12:13:02;;;;;;;1.63;1.20;;;5.80;99.90;;;;;;5081579;28;20035;-82
2023/12/23 12:15:28;;;;;;;1.45;1.23;;;5.80;99.90;;;;;;5081504;28;20600;-88
2023/12/23 12:17:54;;;;;;;1.35;0.90;;;5.80;99.90;;;;;;5079836;28;20131;-86
2023/12/23 12:20:20;;;;;;;1.58;1.40;;;5.90;99.90;;;;;;5063603;28;20052;-88
2023/12/23 12:22:46;;;;;;;2.00;1.23;;;5.90;99.90;;;;;;5062553;28;20060;-87
2023/12/23 12:25:13;;;;;;;1.40;1.20;;;5.90;99.90;;;;;;5074667;28;20493;-87
2023/12/23 12:27:40;;;;;;;1.63;1.30;;;5.90;99.90;;;;;;5067258;28;20043;-87
2023/12/23 12:30:08;;;;;;;1.35;1.23;;;5.90;99.90;;;;;;5057937;28;20032;-89
2023/12/23 12:32:34;;;;;;;1.13;1.02;;;6.00;99.90;;;;;;5064272;28;20039;-88
2023/12/23 12:35:01;;;;;;;1.65;1.33;;;6.00;99.90;;;;;;5058658;28;20339;-89
2023/12/23 12:37:27;;;;;;;2.53;1.50;;;6.00;99.90;;;;;;5064660;28;20035;-88
2023/12/23 12:39:54;;;;;;;1.67;1.52;;;6.10;99.90;;;;;;5061586;28;20380;-89
2023/12/23 12:42:20;;;;;;;1.90;1.30;;;6.10;99.90;;;;;;5061054;28;20125;-88
2023/12/23 12:44:47;;;;;;;1.60;1.35;;;6.20;99.90;;;;;;5061692;28;20038;-89
2023/12/23 12:47:13;;;;;;;2.05;1.42;;;6.20;99.90;;;;;;5081215;28;20039;-89
2023/12/23 12:49:45;;;;;;;2.42;1.80;;;6.20;99.90;;;;;;5059551;28;20505;-88
2023/12/23 12:52:11;;;;;;;2.13;1.80;;;6.30;99.90;;;;;;5079639;28;20582;-88